createdAt,value
2018-10-19T00:02:07.278Z,30.20
2018-10-19T00:04:34.447Z,31.53
2018-10-19T00:07:01.587Z,32.33
2018-10-19T00:09:28.752Z,31.30
2018-10-19T00:11:55.926Z,28.77
2018-10-19T00:14:23.081Z,30.80
2018-10-19T00:16:50.234Z,25.13
2018-10-19T00:19:17.366Z,29.47
2018-10-19T00:21:44.521Z,27.23
2018-10-19T00:24:11.642Z,31.70
2018-10-19T00:26:38.781Z,28.77
2018-10-19T00:29:05.952Z,31.03
2018-10-19T00:31:33.042Z,31.07
2018-10-19T00:34:00.171Z,32.30
2018-10-19T00:36:27.309Z,29.30
2018-10-19T00:38:54.474Z,28.43
2018-10-19T00:41:21.623Z,29.43
2018-10-19T00:43:49.017Z,31.20
2018-10-19T00:46:16.184Z,33.57
2018-10-19T00:48:43.297Z,29.70
2018-10-19T00:51:10.608Z,31.63
2018-10-19T00:53:37.685Z,27.90
2018-10-19T00:56:04.867Z,29.53
2018-10-19T00:58:32.038Z,31.10
2018-10-19T01:00:59.273Z,26.00
2018-10-19T01:03:26.429Z,27.70
2018-10-19T01:05:53.591Z,28.93
2018-10-19T01:08:20.767Z,28.57
2018-10-19T01:10:47.913Z,30.27
2018-10-19T01:13:15.096Z,28.13
2018-10-19T01:15:42.236Z,29.73
2018-10-19T01:18:09.433Z,33.53
2018-10-19T01:20:36.616Z,28.43
2018-10-19T01:23:04.229Z,24.57
2018-10-19T01:25:31.366Z,25.67
2018-10-19T01:27:58.496Z,23.37
2018-10-19T01:30:25.746Z,23.80
2018-10-19T01:32:52.969Z,27.60
2018-10-19T01:35:20.095Z,26.30
2018-10-19T01:37:47.290Z,28.80
2018-10-19T01:40:14.468Z,28.27
2018-10-19T01:42:41.653Z,37.60
2018-10-19T01:45:10.744Z,29.23
2018-10-19T01:47:38.330Z,28.33
2018-10-19T01:50:05.765Z,23.10
2018-10-19T01:52:32.909Z,29.50
2018-10-19T01:55:00.062Z,24.10
2018-10-19T01:57:27.255Z,25.00
2018-10-19T01:59:54.430Z,22.97
2018-10-19T02:02:21.690Z,22.87
2018-10-19T02:04:48.926Z,24.97
2018-10-19T02:07:16.049Z,25.13
2018-10-19T02:09:43.195Z,23.40
2018-10-19T02:12:10.346Z,21.20
2018-10-19T02:14:38.077Z,22.10
2018-10-19T02:17:05.996Z,21.23
2018-10-19T02:19:33.096Z,22.33
2018-10-19T02:22:00.198Z,24.03
2018-10-19T02:24:27.351Z,18.80
2018-10-19T02:26:54.587Z,20.37
2018-10-19T02:29:21.675Z,25.50
2018-10-19T02:31:48.836Z,22.43
2018-10-19T02:34:15.996Z,23.13
2018-10-19T02:36:43.662Z,19.40
2018-10-19T02:39:10.879Z,20.03
2018-10-19T02:41:38.018Z,24.03
2018-10-19T02:44:05.313Z,20.97
2018-10-19T02:46:32.488Z,19.80
2018-10-19T02:48:59.640Z,22.07
2018-10-19T02:51:26.817Z,26.77
2018-10-19T02:53:53.962Z,19.53
2018-10-19T02:56:21.132Z,22.10
2018-10-19T02:58:48.444Z,20.97
2018-10-19T03:01:15.984Z,21.10
2018-10-19T03:03:43.182Z,22.63
2018-10-19T03:06:10.333Z,22.60
2018-10-19T03:08:37.517Z,23.43
2018-10-19T03:11:05.056Z,21.63
2018-10-19T03:13:32.158Z,22.00
2018-10-19T03:15:59.285Z,20.10
2018-10-19T03:18:26.471Z,20.27
2018-10-19T03:20:53.669Z,20.77
2018-10-19T03:23:20.806Z,20.80
2018-10-19T03:25:47.923Z,23.93
2018-10-19T03:28:15.115Z,20.47
2018-10-19T03:30:42.276Z,19.13
2018-10-19T03:33:09.437Z,21.37
2018-10-19T03:35:36.607Z,25.97
2018-10-19T03:38:04.154Z,19.97
2018-10-19T03:40:31.303Z,19.50
2018-10-19T03:42:58.489Z,20.53
2018-10-19T03:45:25.690Z,22.33
2018-10-19T03:47:52.865Z,19.23
2018-10-19T03:50:20.008Z,21.67
2018-10-19T03:52:47.170Z,20.90
2018-10-19T03:55:14.345Z,20.93
2018-10-19T03:57:41.491Z,21.90
2018-10-19T04:00:08.654Z,19.20
2018-10-19T04:02:35.813Z,18.03
2018-10-19T04:05:03.018Z,15.63
2018-10-19T04:07:30.225Z,19.73
2018-10-19T04:09:57.448Z,18.60
2018-10-19T04:12:24.716Z,17.80
2018-10-19T04:14:51.851Z,18.97
2018-10-19T04:17:19.002Z,15.93
2018-10-19T04:19:46.137Z,17.77
2018-10-19T04:22:13.290Z,18.20
2018-10-19T04:24:40.429Z,17.53
2018-10-19T04:27:07.828Z,18.27
2018-10-19T04:29:34.888Z,16.20
2018-10-19T04:32:02.024Z,15.90
2018-10-19T04:34:29.342Z,19.47
2018-10-19T04:37:01.872Z,22.17
2018-10-19T04:39:29.065Z,14.20
2018-10-19T04:41:56.363Z,17.00
2018-10-19T04:44:23.613Z,16.63
2018-10-19T04:46:50.766Z,16.67
2018-10-19T04:49:17.922Z,16.57
2018-10-19T04:51:45.114Z,16.73
2018-10-19T04:54:12.373Z,19.77
2018-10-19T04:56:39.551Z,17.83
2018-10-19T04:59:06.857Z,18.40
2018-10-19T05:01:34.039Z,16.80
2018-10-19T05:04:01.182Z,19.17
2018-10-19T05:06:28.573Z,14.23
2018-10-19T05:08:55.726Z,16.80
2018-10-19T05:11:22.893Z,16.00
2018-10-19T05:13:50.071Z,18.40
2018-10-19T05:16:17.422Z,16.90
2018-10-19T05:18:44.606Z,20.43
2018-10-19T05:21:11.858Z,18.33
2018-10-19T05:23:39.335Z,18.73
2018-10-19T05:26:06.691Z,16.67
2018-10-19T05:28:34.066Z,23.00
2018-10-19T05:31:01.270Z,16.90
2018-10-19T05:33:28.707Z,20.03
2018-10-19T05:35:56.112Z,25.83
2018-10-19T05:38:23.533Z,19.00
2018-10-19T05:40:50.686Z,19.23
2018-10-19T05:43:17.895Z,20.70
2018-10-19T05:45:45.249Z,19.50
2018-10-19T05:48:12.499Z,22.07
2018-10-19T05:50:39.664Z,18.53
2018-10-19T05:53:06.873Z,20.83
2018-10-19T05:55:34.016Z,25.20
2018-10-19T05:58:01.274Z,18.40
2018-10-19T06:00:28.511Z,20.87
2018-10-19T06:02:55.662Z,14.77
2018-10-19T06:05:22.826Z,14.80
2018-10-19T06:07:50.099Z,19.10
2018-10-19T06:10:18.240Z,17.83
2018-10-19T06:12:45.472Z,17.53
2018-10-19T06:15:12.877Z,19.80
2018-10-19T06:17:40.092Z,15.30
2018-10-19T06:20:07.414Z,17.30
2018-10-19T06:22:34.512Z,18.07
2018-10-19T06:25:01.751Z,19.60
2018-10-19T06:27:28.977Z,22.40
2018-10-19T06:29:57.236Z,17.27
2018-10-19T06:32:24.460Z,17.37
2018-10-19T06:34:51.626Z,18.83
2018-10-19T06:37:18.854Z,14.57
2018-10-19T06:39:46.299Z,17.23
2018-10-19T06:42:13.562Z,16.70
2018-10-19T06:44:40.814Z,21.70
2018-10-19T06:47:08.215Z,24.87
2018-10-19T06:49:35.470Z,20.87
2018-10-19T06:52:02.782Z,22.40
2018-10-19T06:54:30.240Z,21.83
2018-10-19T06:56:57.618Z,23.73
2018-10-19T06:59:24.904Z,22.33
2018-10-19T07:01:52.226Z,19.73
2018-10-19T07:04:19.371Z,21.70
2018-10-19T07:06:47.207Z,22.87
2018-10-19T07:09:14.606Z,20.97
2018-10-19T07:11:41.895Z,24.87
2018-10-19T07:14:09.151Z,26.33
2018-10-19T07:16:36.331Z,28.10
2018-10-19T07:23:56.307Z,25.30
2018-10-19T07:26:23.534Z,20.67
2018-10-19T07:28:50.773Z,23.07
2018-10-19T07:31:18.984Z,30.90
2018-10-19T07:33:46.153Z,24.20
2018-10-19T07:36:13.397Z,25.30
2018-10-19T07:38:40.634Z,23.73
2018-10-19T07:41:07.971Z,31.83
2018-10-19T07:43:35.186Z,25.87
2018-10-19T07:46:02.541Z,30.77
2018-10-19T07:48:29.869Z,28.20
2018-10-19T07:50:57.104Z,36.73
2018-10-19T07:53:24.864Z,31.60
2018-10-19T07:55:53.133Z,32.30
2018-10-19T07:58:20.586Z,36.13
2018-10-19T08:00:49.030Z,46.53
2018-10-19T08:03:16.294Z,42.10
2018-10-19T08:05:43.563Z,40.47
2018-10-19T08:08:11.191Z,38.67
2018-10-19T08:10:39.256Z,32.53
2018-10-19T08:13:06.755Z,34.60
2018-10-19T08:15:34.011Z,37.63
2018-10-19T08:18:01.259Z,35.20
2018-10-19T08:20:28.546Z,33.27
2018-10-19T08:22:55.851Z,42.10
2018-10-19T08:25:23.234Z,35.20
2018-10-19T08:27:50.462Z,36.50
2018-10-19T08:30:17.663Z,37.07
2018-10-19T08:32:45.793Z,35.77
2018-10-19T08:35:13.175Z,38.40
2018-10-19T08:37:40.530Z,38.23
2018-10-19T08:40:07.675Z,38.23
2018-10-19T08:42:35.127Z,45.20
2018-10-19T08:45:02.400Z,36.37
2018-10-19T08:47:29.715Z,38.23
2018-10-19T08:49:56.859Z,37.37
2018-10-19T08:52:24.019Z,39.30
2018-10-19T08:54:51.741Z,35.20
2018-10-19T08:57:18.918Z,33.80
2018-10-19T08:59:46.919Z,38.78
2018-10-19T09:02:14.199Z,41.47
2018-10-19T09:04:41.509Z,33.83
2018-10-19T09:07:08.742Z,37.57
2018-10-19T09:09:35.966Z,40.80
2018-10-19T09:12:03.338Z,35.93
2018-10-19T09:14:41.961Z,37.00
2018-10-19T09:17:09.240Z,37.47
2018-10-19T09:19:36.491Z,39.00
2018-10-19T09:22:03.676Z,35.10
2018-10-19T09:24:30.969Z,36.13
2018-10-19T09:26:58.370Z,35.03
2018-10-19T09:29:25.625Z,40.60
2018-10-19T09:31:52.865Z,43.63
2018-10-19T09:34:20.135Z,39.13
2018-10-19T09:36:47.701Z,49.20
2018-10-19T09:39:15.722Z,36.90
2018-10-19T09:41:43.103Z,38.60
2018-10-19T09:44:10.349Z,46.73
2018-10-19T09:46:39.325Z,47.50
2018-10-19T09:49:07.857Z,40.70
2018-10-19T09:51:35.510Z,39.57
2018-10-19T09:54:02.775Z,36.90
2018-10-19T09:56:29.966Z,40.57
2018-10-19T09:58:57.216Z,45.27
2018-10-19T10:01:28.361Z,44.53
2018-10-19T10:03:55.663Z,41.00
2018-10-19T10:06:23.127Z,50.73
2018-10-19T10:08:50.356Z,46.57
2018-10-19T10:11:17.777Z,43.00
2018-10-19T10:13:45.399Z,47.93
2018-10-19T10:16:12.663Z,43.70
2018-10-19T10:18:40.205Z,34.97
2018-10-19T10:21:07.891Z,41.30
2018-10-19T10:23:35.099Z,41.97
2018-10-19T10:26:02.231Z,38.10
2018-10-19T10:28:29.621Z,38.27
2018-10-19T10:30:56.996Z,38.87
2018-10-19T10:33:24.350Z,40.40
2018-10-19T10:35:51.662Z,36.90
2018-10-19T10:38:18.993Z,40.23
2018-10-19T10:40:46.658Z,43.23
2018-10-19T10:43:14.095Z,38.17
2018-10-19T10:45:41.267Z,38.37
2018-10-19T10:48:08.617Z,37.97
2018-10-19T10:50:35.939Z,41.40
2018-10-19T10:53:03.204Z,39.50
2018-10-19T10:55:30.457Z,40.93
2018-10-19T10:57:57.820Z,41.50
2018-10-19T11:00:25.077Z,38.63
2018-10-19T11:02:53.106Z,43.40
2018-10-19T11:05:20.384Z,42.70
2018-10-19T11:07:49.776Z,41.53
2018-10-19T11:10:17.106Z,38.50
2018-10-19T11:12:44.171Z,36.37
2018-10-19T11:15:12.646Z,39.00
2018-10-19T11:17:40.804Z,43.57
2018-10-19T11:20:08.050Z,38.40
2018-10-19T11:22:35.370Z,40.90
2018-10-19T11:25:02.671Z,41.07
2018-10-19T11:27:29.935Z,35.43
2018-10-19T11:29:57.433Z,41.20
2018-10-19T11:32:24.630Z,38.90
2018-10-19T11:34:51.834Z,35.07
2018-10-19T11:37:19.176Z,43.13
2018-10-19T11:39:58.383Z,46.87
2018-10-19T11:42:26.843Z,41.87
2018-10-19T11:44:54.232Z,47.53
2018-10-19T11:47:21.960Z,41.40
2018-10-19T11:49:49.146Z,44.47
2018-10-19T11:52:16.403Z,42.43
2018-10-19T11:54:43.645Z,36.67
2018-10-19T11:57:11.528Z,39.73
2018-10-19T11:59:38.630Z,33.60
2018-10-19T12:02:06.665Z,35.60
2018-10-19T12:04:34.308Z,36.47
2018-10-19T12:07:01.812Z,46.63
2018-10-19T12:09:28.975Z,41.33
2018-10-19T12:11:56.195Z,43.83
2018-10-19T12:14:23.371Z,47.90
2018-10-19T12:16:51.131Z,41.07
2018-10-19T12:19:22.608Z,42.10
2018-10-19T12:21:50.126Z,40.87
2018-10-19T12:24:17.750Z,41.27
2018-10-19T12:26:45.045Z,40.77
2018-10-19T12:29:12.251Z,43.27
2018-10-19T12:31:40.563Z,40.90
2018-10-19T12:34:08.980Z,39.27
2018-10-19T12:36:36.578Z,38.20
2018-10-19T12:39:06.654Z,37.10
2018-10-19T12:41:34.352Z,35.70
2018-10-19T12:44:01.550Z,38.60
2018-10-19T12:46:42.181Z,37.00
2018-10-19T12:49:11.286Z,35.73
2018-10-19T12:51:39.232Z,46.07
2018-10-19T12:54:13.309Z,38.90
2018-10-19T12:56:41.113Z,42.77
2018-10-19T12:59:08.453Z,40.50
2018-10-19T13:01:35.917Z,37.73
2018-10-19T13:04:03.458Z,39.97
2018-10-19T13:06:30.797Z,42.73
2018-10-19T13:08:58.168Z,42.13
2018-10-19T13:11:25.831Z,39.77
2018-10-19T13:13:53.311Z,35.70
2018-10-19T13:16:20.872Z,36.00
2018-10-19T13:18:48.158Z,38.73
2018-10-19T13:21:15.438Z,40.17
2018-10-19T13:23:42.733Z,40.23
2018-10-19T13:26:10.257Z,48.70
2018-10-19T13:28:37.524Z,40.00
2018-10-19T13:31:04.859Z,44.40
2018-10-19T13:33:33.177Z,37.40
2018-10-19T13:36:00.458Z,33.43
2018-10-19T13:38:27.641Z,37.10
2018-10-19T13:40:55.416Z,53.53
2018-10-19T13:43:23.040Z,42.17
2018-10-19T13:45:50.758Z,41.17
2018-10-19T13:48:18.509Z,39.53
2018-10-19T13:50:46.232Z,35.93
2018-10-19T13:53:13.905Z,39.20
2018-10-19T13:55:41.099Z,43.10
2018-10-19T13:58:08.386Z,37.33
2018-10-19T14:00:35.753Z,37.40
2018-10-19T14:03:03.104Z,38.67
2018-10-19T14:05:30.661Z,42.93
2018-10-19T14:07:57.852Z,39.03
2018-10-19T14:10:25.208Z,35.20
2018-10-19T14:12:52.483Z,40.83
2018-10-19T14:15:19.844Z,37.37
2018-10-19T14:17:47.210Z,37.23
2018-10-19T14:20:14.824Z,43.27
2018-10-19T14:22:42.087Z,35.50
2018-10-19T14:25:11.489Z,37.80
2018-10-19T14:27:40.014Z,35.00
2018-10-19T14:30:10.350Z,42.10
2018-10-19T14:32:39.277Z,33.17
2018-10-19T14:35:06.863Z,35.00
2018-10-19T14:37:34.869Z,37.07
2018-10-19T14:40:02.112Z,38.23
2018-10-19T14:42:29.485Z,35.50
2018-10-19T14:44:56.811Z,43.27
2018-10-19T14:47:24.136Z,34.70
2018-10-19T14:49:51.606Z,34.17
2018-10-19T14:52:18.880Z,44.40
2018-10-19T14:54:46.297Z,36.53
2018-10-19T14:57:13.767Z,30.30
2018-10-19T14:59:45.090Z,35.83
2018-10-19T15:02:12.278Z,40.00
2018-10-19T15:04:39.466Z,39.93
2018-10-19T15:07:06.622Z,47.37
2018-10-19T15:09:33.832Z,39.50
2018-10-19T15:12:01.015Z,36.20
2018-10-19T15:14:29.131Z,36.53
2018-10-19T15:16:56.409Z,39.07
2018-10-19T15:19:25.399Z,43.77
2018-10-19T15:21:52.706Z,46.03
2018-10-19T15:24:19.998Z,41.97
2018-10-19T15:26:47.253Z,38.07
2018-10-19T15:29:15.493Z,38.40
2018-10-19T15:31:42.862Z,33.10
2018-10-19T15:34:10.128Z,40.33
2018-10-19T15:36:37.538Z,34.63
2018-10-19T15:39:07.638Z,33.63
2018-10-19T15:41:34.915Z,36.50
2018-10-19T15:44:02.144Z,36.30
2018-10-19T15:46:29.465Z,32.90
2018-10-19T15:48:56.634Z,33.83
2018-10-19T15:51:23.837Z,37.90
2018-10-19T15:53:51.381Z,36.10
2018-10-19T15:56:18.696Z,33.07
2018-10-19T15:58:45.980Z,36.80
2018-10-19T16:01:13.252Z,41.00
2018-10-19T16:03:40.715Z,37.13
2018-10-19T16:06:08.257Z,40.33
2018-10-19T16:08:35.665Z,38.50
2018-10-19T16:11:02.939Z,39.63
2018-10-19T16:13:30.615Z,42.13
2018-10-19T16:15:58.346Z,40.83
2018-10-19T16:18:28.532Z,41.43
2018-10-19T16:20:56.234Z,38.70
2018-10-19T16:23:24.709Z,38.90
2018-10-19T16:25:55.370Z,38.20
2018-10-19T16:28:24.508Z,40.83
2018-10-19T16:30:51.965Z,40.50
2018-10-19T16:33:19.778Z,46.10
2018-10-19T16:35:48.711Z,36.73
2018-10-19T16:38:16.230Z,38.33
2018-10-19T16:40:43.523Z,35.30
2018-10-19T16:43:10.882Z,43.33
2018-10-19T16:45:38.859Z,46.90
2018-10-19T16:48:06.953Z,33.40
2018-10-19T16:50:34.222Z,29.93
2018-10-19T16:53:01.573Z,29.47
2018-10-19T16:55:28.728Z,34.03
2018-10-19T16:57:56.017Z,37.77
2018-10-19T17:00:23.304Z,38.47
2018-10-19T17:02:50.708Z,47.93
2018-10-19T17:05:17.942Z,35.13
2018-10-19T17:07:45.148Z,32.60
2018-10-19T17:10:12.416Z,31.10
2018-10-19T17:12:40.676Z,29.73
2018-10-19T17:15:09.760Z,32.17
2018-10-19T17:17:37.480Z,30.20
2018-10-19T17:20:05.075Z,35.30
2018-10-19T17:22:32.421Z,42.40
2018-10-19T17:25:00.241Z,55.47
2018-10-19T17:27:27.701Z,51.00
2018-10-19T17:29:55.211Z,48.20
2018-10-19T17:32:22.773Z,47.83
2018-10-19T17:34:50.428Z,42.00
2018-10-19T17:37:17.714Z,42.27
2018-10-19T17:39:46.525Z,41.10
2018-10-19T17:42:13.773Z,34.63
2018-10-19T17:44:41.465Z,39.93
2018-10-19T17:47:09.658Z,37.87
2018-10-19T17:50:03.624Z,40.90
2018-10-19T17:52:31.132Z,39.03
2018-10-19T17:54:58.432Z,37.00
2018-10-19T17:57:26.143Z,49.33
2018-10-19T17:59:53.362Z,40.07
2018-10-19T18:02:20.504Z,34.57
2018-10-19T18:04:48.106Z,38.03
2018-10-19T18:07:18.371Z,35.30
2018-10-19T18:09:47.006Z,32.70
2018-10-19T18:12:14.346Z,32.43
2018-10-19T18:14:41.612Z,32.50
2018-10-19T18:17:08.924Z,30.33
2018-10-19T18:19:36.255Z,35.30
2018-10-19T18:24:39.358Z,49.50
2018-10-19T18:27:06.673Z,55.20
2018-10-19T18:29:33.826Z,54.47
2018-10-19T18:32:01.125Z,66.33
2018-10-19T18:34:28.363Z,60.90
2018-10-19T18:36:55.642Z,60.17
2018-10-19T18:39:22.962Z,64.40
2018-10-19T18:41:50.293Z,74.60
2018-10-19T18:44:17.598Z,70.43
2018-10-19T18:46:44.766Z,76.13
2018-10-19T18:49:12.091Z,66.63
2018-10-19T18:51:39.527Z,57.30
2018-10-19T18:54:07.024Z,43.43
2018-10-19T18:56:34.466Z,40.37
2018-10-19T18:59:01.819Z,44.47
2018-10-19T19:01:29.242Z,59.33
2018-10-19T19:03:56.670Z,66.10
2018-10-19T19:06:23.995Z,64.80
2018-10-19T19:08:51.503Z,47.53
2018-10-19T19:11:19.004Z,40.20
2018-10-19T19:13:48.329Z,38.10
2018-10-19T19:16:21.478Z,47.23
2018-10-19T19:18:48.852Z,39.97
2018-10-19T19:21:16.179Z,45.20
2018-10-19T19:23:49.073Z,69.70
2018-10-19T19:26:20.130Z,51.73
2018-10-19T19:31:26.006Z,39.43
2018-10-19T19:33:59.163Z,33.53
2018-10-19T19:36:26.504Z,34.87
2018-10-19T19:38:53.957Z,38.90
2018-10-19T19:41:27.066Z,46.40
2018-10-19T19:43:54.382Z,52.23
2018-10-19T19:46:21.671Z,59.90
2018-10-19T19:48:54.523Z,60.93
2018-10-19T19:51:21.670Z,57.53
2018-10-19T19:53:49.128Z,79.33
2018-10-19T19:56:16.425Z,87.30
2018-10-19T19:58:44.569Z,89.17
2018-10-19T20:01:11.999Z,89.33
2018-10-19T20:03:47.762Z,95.27
2018-10-19T20:06:15.222Z,91.80
2018-10-19T20:08:42.419Z,91.23
2018-10-19T20:11:09.703Z,94.27
2018-10-19T20:13:36.871Z,104.73
2018-10-19T20:16:04.384Z,91.53
2018-10-19T20:18:31.603Z,81.73
2018-10-19T20:20:58.782Z,78.73
2018-10-19T20:23:26.042Z,66.40
2018-10-19T20:25:53.488Z,97.07
2018-10-19T20:28:20.904Z,99.17
2018-10-19T20:30:48.418Z,104.17
2018-10-19T20:33:15.654Z,100.80
2018-10-19T20:35:42.868Z,106.30
2018-10-19T20:38:10.321Z,90.87
2018-10-19T20:40:37.539Z,56.17
2018-10-19T20:43:05.471Z,47.43
2018-10-19T20:45:32.778Z,47.90
2018-10-19T20:48:00.089Z,46.77
2018-10-19T20:50:27.288Z,53.23
2018-10-19T20:52:54.692Z,47.33
2018-10-19T20:55:22.017Z,44.63
2018-10-19T20:57:49.210Z,36.47
2018-10-19T21:00:17.536Z,37.33
2018-10-19T21:02:45.266Z,48.00
2018-10-19T21:05:12.576Z,46.03
2018-10-19T21:07:39.794Z,56.30
2018-10-19T21:10:09.461Z,41.90
2018-10-19T21:12:37.323Z,35.77
2018-10-19T21:15:05.788Z,40.77
2018-10-19T21:17:33.103Z,33.37
2018-10-19T21:20:00.309Z,36.97
2018-10-19T21:22:27.542Z,30.87
2018-10-19T21:24:54.756Z,33.93
2018-10-19T21:27:22.057Z,36.47
2018-10-19T21:29:49.851Z,32.63
2018-10-19T21:32:17.111Z,34.47
2018-10-19T21:34:44.227Z,37.57
2018-10-19T21:37:11.641Z,32.03
2018-10-19T21:39:38.838Z,39.60
2018-10-19T21:42:06.095Z,37.07
2018-10-19T21:44:33.410Z,31.83
2018-10-19T21:47:00.755Z,29.57
2018-10-19T21:49:27.945Z,29.90
2018-10-19T21:51:55.357Z,28.93
2018-10-19T21:54:22.726Z,28.50
2018-10-19T21:56:49.869Z,30.63
2018-10-19T21:59:17.186Z,28.70
2018-10-19T22:01:44.214Z,27.07
2018-10-19T22:04:11.442Z,31.17
2018-10-19T22:06:38.599Z,29.23
2018-10-19T22:09:09.890Z,34.87
2018-10-19T22:11:37.813Z,36.40
2018-10-19T22:14:04.962Z,29.90
2018-10-19T22:16:32.272Z,33.57
2018-10-19T22:18:59.460Z,32.33
2018-10-19T22:21:26.613Z,36.93
2018-10-19T22:23:53.814Z,33.00
2018-10-19T22:26:21.033Z,32.57
2018-10-19T22:28:48.221Z,28.20
2018-10-19T22:31:15.426Z,29.17
2018-10-19T22:33:42.577Z,31.30
2018-10-19T22:36:09.846Z,26.13
2018-10-19T22:38:37.074Z,28.80
2018-10-19T22:41:04.804Z,27.00
2018-10-19T22:43:32.060Z,38.00
2018-10-19T22:45:59.286Z,28.37
2018-10-19T22:48:26.434Z,30.97
2018-10-19T22:50:53.631Z,29.97
2018-10-19T22:53:20.781Z,27.10
2018-10-19T22:55:47.990Z,27.83
2018-10-19T22:58:15.240Z,29.13
2018-10-19T23:00:42.383Z,26.97
2018-10-19T23:03:09.589Z,26.80
2018-10-19T23:05:36.799Z,32.83
2018-10-19T23:08:04.509Z,26.70
2018-10-19T23:10:31.701Z,29.77
2018-10-19T23:12:59.014Z,28.17
2018-10-19T23:15:26.152Z,29.87
2018-10-19T23:17:53.310Z,29.67
2018-10-19T23:20:20.622Z,28.33
2018-10-19T23:22:47.854Z,27.70
2018-10-19T23:25:15.103Z,30.60
2018-10-19T23:27:42.407Z,29.00
2018-10-19T23:30:09.549Z,32.73
2018-10-19T23:32:36.758Z,30.90
2018-10-19T23:35:05.359Z,29.53
2018-10-19T23:37:32.566Z,27.10
2018-10-19T23:39:59.808Z,32.40
2018-10-19T23:42:27.074Z,24.47
2018-10-19T23:44:54.309Z,28.23
2018-10-19T23:47:21.454Z,30.57
2018-10-19T23:49:48.635Z,27.90
2018-10-19T23:52:15.825Z,25.90
2018-10-19T23:54:43.007Z,28.33
2018-10-19T23:57:10.269Z,32.20
2018-10-19T23:59:37.570Z,26.63
